Time;durP1;ratioP1;P1;durP2;ratioP2;P2;SDS_P1;SDS_P2;PMS_P1;PMS_P2;Temp;Humidity;BMP_temperature;BMP_pressure;BME280_temperature;BME280_humidity;BME280_pressure;Samples;Min_cycle;Max_cycle;Signal;HPM_P1;HPM_P2
2023/05/08 00:02:05;;;;;;;25.10;22.60;;;14.40;99.90;;;;;;2620721;54;20414;-80
2023/05/08 00:08:00;;;;;;;22.93;20.53;;;14.40;99.90;;;;;;2620568;54;20130;-80
2023/05/08 00:13:47;;;;;;;21.67;19.37;;;14.40;99.90;;;;;;2618521;54;20395;-80
2023/05/08 00:19:35;;;;;;;23.97;21.50;;;14.40;99.90;;;;;;2616406;54;20158;-83
2023/05/08 00:25:23;;;;;;;26.60;23.00;;;14.30;99.90;;;;;;2616358;39;20355;-83
2023/05/08 00:31:11;;;;;;;23.17;20.70;;;14.20;99.90;;;;;;2616531;54;20167;-82
2023/05/08 00:36:59;;;;;;;24.00;21.50;;;14.30;99.90;;;;;;2614810;54;20202;-83
2023/05/08 00:42:47;;;;;;;26.20;23.40;;;14.10;99.90;;;;;;2616110;54;20944;-84
2023/05/08 00:48:35;;;;;;;25.43;22.70;;;14.10;99.90;;;;;;2615466;54;20122;-84
2023/05/08 00:58:20;;;;;;;26.20;21.17;;;14.00;99.90;;;;;;2616849;54;20395;-84
2023/05/08 01:04:08;;;;;;;26.27;23.20;;;14.00;99.90;;;;;;2616462;54;20419;-83
2023/05/08 01:09:56;;;;;;;24.37;21.40;;;14.00;99.90;;;;;;2616549;54;20395;-83
2023/05/08 01:29:24;;;;;;;24.47;22.07;;;13.80;99.90;;;;;;2617325;54;20846;-83
2023/05/08 01:48:12;;;;;;;23.87;21.43;;;13.80;99.90;;;;;;2616005;54;20480;-83
2023/05/08 02:00:46;;;;;;;24.40;21.80;;;13.60;99.90;;;;;;2615192;54;20423;-82
2023/05/08 02:06:35;;;;;;;23.70;21.30;;;13.60;99.90;;;;;;2615933;46;20473;-83
2023/05/08 02:12:25;;;;;;;24.83;22.07;;;13.50;99.90;;;;;;2620144;54;20418;-80
2023/05/08 02:18:14;;;;;;;26.97;24.17;;;13.40;99.90;;;;;;2619940;54;20382;-81
2023/05/08 02:24:03;;;;;;;33.20;24.07;;;13.40;99.90;;;;;;2621326;39;20781;-80
2023/05/08 02:29:53;;;;;;;27.47;24.57;;;13.30;99.90;;;;;;2618600;54;20414;-80
2023/05/08 02:35:43;;;;;;;24.77;22.27;;;13.20;99.90;;;;;;2618413;54;20405;-80
2023/05/08 02:41:33;;;;;;;25.10;22.27;;;13.10;99.90;;;;;;2616612;54;20382;-80
2023/05/08 02:47:26;;;;;;;27.47;24.57;;;13.10;99.90;;;;;;2618703;54;20383;-81
2023/05/08 02:53:52;;;;;;;28.70;25.63;;;13.10;99.90;;;;;;2617678;54;20383;-79
2023/05/08 02:59:50;;;;;;;27.50;23.47;;;13.10;99.90;;;;;;2619056;54;20410;-83
2023/05/08 03:05:41;;;;;;;30.20;24.70;;;13.10;99.90;;;;;;2618986;54;20423;-83
2023/05/08 03:18:06;;;;;;;27.57;24.60;;;13.30;99.90;;;;;;2619692;54;20512;-83
2023/05/08 03:23:56;;;;;;;26.33;23.27;;;13.30;99.90;;;;;;2619131;54;20383;-83
2023/05/08 03:29:45;;;;;;;25.93;23.27;;;13.20;99.90;;;;;;2621080;54;20913;-83
2023/05/08 03:35:37;;;;;;;28.73;25.73;;;13.20;99.90;;;;;;2621702;39;20944;-87
2023/05/08 03:41:25;;;;;;;24.20;21.70;;;13.20;99.90;;;;;;2620189;54;20407;-82
2023/05/08 03:47:14;;;;;;;26.00;23.30;;;13.10;99.90;;;;;;2621797;54;20411;-83
2023/05/08 03:53:02;;;;;;;25.63;22.90;;;13.10;99.90;;;;;;2619451;54;20387;-83
2023/05/08 04:18:29;;;;;;;29.80;24.07;;;13.00;99.90;;;;;;2615716;54;20415;-83
2023/05/08 04:20:55;;;;;;;25.53;22.87;;;13.00;99.90;;;;;;2616992;47;20454;-83
2023/05/08 04:26:44;;;;;;;27.87;22.90;;;13.00;99.90;;;;;;2616604;54;20390;-85
2023/05/08 04:32:33;;;;;;;26.53;23.23;;;13.10;99.90;;;;;;2616773;54;20416;-84
2023/05/08 04:38:21;;;;;;;28.40;25.00;;;13.00;99.90;;;;;;2617927;54;20408;-83
2023/05/08 04:44:10;;;;;;;28.57;25.60;;;13.10;99.90;;;;;;2618875;54;20247;-83
2023/05/08 04:49:58;;;;;;;27.87;25.20;;;13.20;99.90;;;;;;2618055;54;20387;-83
2023/05/08 04:55:46;;;;;;;29.83;26.63;;;13.30;99.90;;;;;;2619987;54;20150;-83
2023/05/08 05:04:57;;;;;;;27.27;24.47;;;13.60;99.90;;;;;;2621220;54;20591;-82
2023/05/08 05:10:45;;;;;;;26.30;23.60;;;13.80;99.90;;;;;;2617140;54;20404;-80
2023/05/08 05:16:33;;;;;;;29.63;26.90;;;13.90;99.90;;;;;;2616389;54;20135;-82
2023/05/08 05:22:22;;;;;;;28.90;26.20;;;14.30;99.90;;;;;;2615105;54;20426;-79
2023/05/08 05:28:09;;;;;;;26.37;23.67;;;14.50;99.90;;;;;;2614337;54;20968;-79
2023/05/08 05:33:57;;;;;;;25.47;22.93;;;14.60;99.90;;;;;;2615490;54;20154;-79
2023/05/08 05:39:45;;;;;;;24.70;22.23;;;14.50;99.90;;;;;;2613921;54;20250;-80
2023/05/08 05:45:33;;;;;;;25.40;22.80;;;14.40;99.90;;;;;;2616606;54;20154;-79
2023/05/08 05:51:20;;;;;;;27.40;24.43;;;14.50;99.90;;;;;;2617591;54;20450;-80
2023/05/08 05:57:08;;;;;;;25.70;23.30;;;14.90;99.90;;;;;;2617619;54;20139;-79
2023/05/08 06:00:29;;;;;;;26.20;23.87;;;15.10;99.90;;;;;;2614841;54;20463;-79
2023/05/08 06:02:55;;;;;;;26.53;23.97;;;15.20;99.90;;;;;;2616298;54;20151;-80
2023/05/08 06:08:43;;;;;;;28.27;25.53;;;15.50;99.90;;;;;;2624448;54;20157;-85
2023/05/08 06:14:31;;;;;;;23.67;21.37;;;15.70;99.90;;;;;;2621739;54;20129;-83
2023/05/08 06:20:18;;;;;;;24.33;21.77;;;15.70;99.90;;;;;;2618387;54;20171;-83
2023/05/08 06:26:07;;;;;;;24.17;21.77;;;15.80;99.90;;;;;;2615900;54;20660;-84
2023/05/08 06:31:55;;;;;;;21.23;19.23;;;15.90;99.90;;;;;;2616541;54;20129;-83
2023/05/08 06:37:44;;;;;;;19.70;17.80;;;15.90;99.90;;;;;;2618831;39;20816;-83
2023/05/08 06:43:32;;;;;;;20.53;18.57;;;16.10;99.90;;;;;;2616080;54;20403;-82
2023/05/08 06:49:20;;;;;;;15.63;14.30;;;16.20;99.90;;;;;;2617303;54;20166;-82
2023/05/08 06:55:08;;;;;;;13.03;11.83;;;16.40;99.90;;;;;;2617996;54;20131;-84
2023/05/08 07:04:58;;;;;;;13.87;12.67;;;16.80;99.90;;;;;;2623903;54;20472;-82
2023/05/08 07:10:46;;;;;;;12.50;11.40;;;16.30;99.90;;;;;;2625136;54;20395;-83
2023/05/08 07:16:36;;;;;;;14.10;12.70;;;16.60;99.90;;;;;;2618669;54;20239;-84
2023/05/08 07:22:24;;;;;;;12.57;11.47;;;17.10;99.90;;;;;;2615066;54;20402;-83
2023/05/08 07:28:13;;;;;;;13.90;12.47;;;17.90;99.90;;;;;;2615676;54;20138;-83
2023/05/08 07:34:01;;;;;;;13.53;12.33;;;17.80;99.90;;;;;;2613698;39;20829;-83
2023/05/08 07:39:49;;;;;;;13.17;12.00;;;18.00;99.90;;;;;;2614729;54;20536;-83
2023/05/08 07:45:37;;;;;;;13.13;11.93;;;17.90;99.90;;;;;;2614603;54;20158;-83
2023/05/08 07:51:25;;;;;;;12.77;11.67;;;18.30;99.90;;;;;;2613987;54;20142;-84
2023/05/08 07:57:14;;;;;;;13.63;12.43;;;18.50;99.90;;;;;;2615023;54;20945;-82
2023/05/08 08:00:26;;;;;;;15.27;13.67;;;18.40;99.90;;;;;;2614425;47;20534;-82
2023/05/08 08:02:52;;;;;;;14.23;12.83;;;18.30;99.90;;;;;;2613655;54;20780;-83
2023/05/08 08:08:40;;;;;;;10.93;10.13;;;18.70;99.90;;;;;;2613750;54;21781;-82
2023/05/08 08:14:28;;;;;;;10.70;9.90;;;18.70;99.90;;;;;;2613588;54;20148;-82
2023/05/08 08:20:16;;;;;;;10.60;9.80;;;18.90;99.90;;;;;;2613245;54;20251;-84
2023/05/08 08:26:04;;;;;;;11.50;10.60;;;18.50;99.90;;;;;;2614028;54;20150;-83
2023/05/08 08:31:51;;;;;;;11.60;10.80;;;19.20;99.90;;;;;;2614682;54;20158;-83
2023/05/08 08:37:39;;;;;;;11.43;10.60;;;19.60;99.90;;;;;;2614990;54;20131;-79
2023/05/08 08:43:27;;;;;;;11.07;10.10;;;19.60;99.90;;;;;;2613305;54;20126;-80
2023/05/08 08:49:19;;;;;;;12.33;11.43;;;19.60;99.90;;;;;;2612912;54;20403;-84
2023/05/08 08:55:11;;;;;;;11.03;10.27;;;20.10;99.90;;;;;;2615079;54;20427;-84
2023/05/08 09:04:59;;;;;;;12.30;11.30;;;20.20;99.90;;;;;;2614800;54;21132;-84
2023/05/08 09:10:46;;;;;;;11.40;10.70;;;19.70;99.90;;;;;;2615316;54;20395;-84
2023/05/08 09:16:34;;;;;;;13.37;12.57;;;20.10;99.90;;;;;;2620186;39;20506;-86
2023/05/08 09:22:23;;;;;;;13.30;12.50;;;20.00;99.90;;;;;;2612986;54;20158;-83
2023/05/08 09:28:20;;;;;;;12.90;12.10;;;20.60;99.90;;;;;;2613793;54;20399;-85
2023/05/08 09:34:09;;;;;;;13.90;12.80;;;20.80;99.90;;;;;;2614996;54;20798;-84
2023/05/08 09:44:27;;;;;;;12.90;12.10;;;19.90;99.90;;;;;;2614600;54;20433;-82
2023/05/08 09:50:15;;;;;;;12.80;12.00;;;20.90;99.90;;;;;;2615540;54;20895;-84
2023/05/08 09:56:03;;;;;;;12.10;11.37;;;20.30;99.90;;;;;;2616903;54;20374;-85
2023/05/08 10:05:25;;;;;;;11.07;10.50;;;20.90;99.90;;;;;;2627961;54;20387;-87
2023/05/08 10:11:18;;;;;;;10.20;9.50;;;20.70;99.90;;;;;;2627488;54;20421;-83
2023/05/08 10:17:44;;;;;;;13.23;12.27;;;20.30;99.90;;;;;;2629247;54;20411;-82
2023/05/08 10:20:20;;;;;;;11.17;10.27;;;20.20;99.90;;;;;;2627162;54;20387;-85
2023/05/08 10:26:18;;;;;;;12.33;11.63;;;20.40;99.90;;;;;;2620406;54;20423;-86
2023/05/08 10:32:09;;;;;;;11.43;10.73;;;19.90;99.90;;;;;;2618667;54;20386;-83
2023/05/08 10:37:58;;;;;;;11.37;10.33;;;19.90;99.90;;;;;;2618387;39;20871;-83
2023/05/08 10:43:47;;;;;;;10.13;9.63;;;20.00;99.90;;;;;;2617070;39;20794;-85
2023/05/08 10:56:14;;;;;;;10.03;9.53;;;20.40;99.90;;;;;;2614240;54;20395;-84
2023/05/08 11:05:29;;;;;;;12.50;11.80;;;20.00;99.90;;;;;;2616520;54;20411;-85
2023/05/08 11:11:27;;;;;;;11.67;10.77;;;20.30;99.90;;;;;;2615630;54;20476;-83
2023/05/08 11:17:22;;;;;;;11.20;10.50;;;20.20;99.90;;;;;;2613874;54;20411;-86
2023/05/08 11:23:32;;;;;;;10.23;9.23;;;20.60;99.90;;;;;;2613395;54;20391;-83
2023/05/08 11:29:20;;;;;;;10.30;9.80;;;20.20;99.90;;;;;;2614962;39;20886;-83
2023/05/08 11:35:13;;;;;;;10.40;9.80;;;20.90;99.90;;;;;;2616649;54;20151;-83
2023/05/08 11:41:06;;;;;;;10.57;10.07;;;20.50;99.90;;;;;;2615863;39;21114;-84
2023/05/08 11:46:55;;;;;;;9.97;9.47;;;21.40;99.90;;;;;;2614994;54;20410;-83
2023/05/08 11:52:43;;;;;;;10.37;9.77;;;20.50;99.90;;;;;;2614268;39;20900;-83
2023/05/08 11:58:30;;;;;;;10.80;10.20;;;21.30;99.90;;;;;;2615627;54;20141;-82
2023/05/08 12:00:57;;;;;;;12.10;11.30;;;21.50;99.90;;;;;;2614346;54;20403;-84
2023/05/08 12:03:24;;;;;;;11.10;10.50;;;21.70;99.90;;;;;;2615232;54;20669;-84
2023/05/08 12:09:15;;;;;;;12.03;11.30;;;22.30;99.90;;;;;;2614173;54;21038;-82
2023/05/08 12:15:07;;;;;;;12.00;11.30;;;22.50;99.90;;;;;;2615755;54;20371;-82
2023/05/08 12:20:59;;;;;;;11.80;11.30;;;22.50;99.90;;;;;;2614469;54;20380;-84
2023/05/08 12:26:48;;;;;;;12.87;12.27;;;23.00;92.00;;;;;;2613153;54;20391;-84
2023/05/08 12:32:37;;;;;;;12.13;11.57;;;22.30;97.20;;;;;;2614779;54;20399;-84
2023/05/08 12:38:26;;;;;;;12.30;11.60;;;23.50;91.30;;;;;;2614762;46;20395;-83
2023/05/08 12:44:18;;;;;;;12.10;11.60;;;22.40;91.20;;;;;;2615183;54;20976;-84
2023/05/08 12:50:09;;;;;;;12.53;11.97;;;22.90;84.80;;;;;;2614859;54;20457;-83
2023/05/08 12:56:01;;;;;;;12.50;12.00;;;22.70;87.00;;;;;;2615913;54;20404;-83
2023/05/08 13:05:29;;;;;;;12.20;11.60;;;22.80;70.80;;;;;;2614162;54;20406;-82
2023/05/08 13:17:52;;;;;;;12.90;12.23;;;21.80;91.30;;;;;;2618206;54;20480;-83
2023/05/08 13:23:42;;;;;;;13.70;13.00;;;23.00;76.90;;;;;;2617369;54;20146;-82
2023/05/08 13:29:30;;;;;;;13.83;13.07;;;22.20;84.30;;;;;;2618551;54;20479;-83
2023/05/08 13:35:19;;;;;;;14.40;13.60;;;22.30;90.60;;;;;;2617124;54;20211;-84
2023/05/08 13:41:06;;;;;;;12.43;11.83;;;22.30;89.60;;;;;;2617404;54;20394;-83
2023/05/08 13:46:54;;;;;;;13.87;13.23;;;22.70;89.50;;;;;;2616046;54;20146;-83
2023/05/08 13:52:42;;;;;;;13.97;13.17;;;22.70;71.30;;;;;;2618587;54;20135;-83
2023/05/08 13:58:30;;;;;;;14.87;14.17;;;22.10;75.60;;;;;;2618311;54;20146;-82
2023/05/08 14:00:57;;;;;;;13.27;12.67;;;22.60;78.00;;;;;;2617468;54;21057;-82
2023/05/08 14:03:23;;;;;;;15.00;14.20;;;22.80;73.90;;;;;;2618925;39;20358;-83
2023/05/08 14:09:10;;;;;;;15.27;14.47;;;22.90;69.20;;;;;;2617810;54;20130;-83
2023/05/08 14:14:59;;;;;;;14.63;13.73;;;22.40;60.00;;;;;;2617868;54;20133;-83
2023/05/08 14:20:47;;;;;;;15.60;14.27;;;22.50;73.10;;;;;;2618850;54;20836;-82
2023/05/08 14:26:34;;;;;;;14.87;13.97;;;22.80;75.00;;;;;;2617750;39;20525;-83
2023/05/08 14:32:22;;;;;;;16.20;15.10;;;22.10;76.80;;;;;;2618626;54;20167;-82
2023/05/08 14:38:10;;;;;;;14.73;13.80;;;22.50;74.70;;;;;;2617731;54;20403;-82
2023/05/08 14:43:58;;;;;;;15.37;14.50;;;21.80;83.70;;;;;;2617546;54;20415;-84
2023/05/08 14:49:46;;;;;;;14.77;13.93;;;21.50;80.20;;;;;;2619519;54;20146;-83
2023/05/08 14:55:34;;;;;;;14.30;13.40;;;21.80;83.00;;;;;;2619423;54;20130;-82
2023/05/08 15:05:28;;;;;;;13.87;13.07;;;22.10;83.30;;;;;;2619379;54;20515;-81
2023/05/08 15:11:16;;;;;;;13.23;12.53;;;22.00;74.60;;;;;;2619914;54;20427;-84
2023/05/08 15:17:04;;;;;;;13.20;12.50;;;21.50;76.30;;;;;;2621160;54;20123;-83
2023/05/08 15:22:53;;;;;;;14.50;13.77;;;22.30;72.60;;;;;;2622463;54;20134;-84
2023/05/08 15:28:41;;;;;;;14.90;13.87;;;22.90;69.20;;;;;;2617063;54;20508;-81
2023/05/08 15:34:29;;;;;;;15.67;14.57;;;22.40;78.20;;;;;;2615796;54;20134;-80
2023/05/08 15:40:17;;;;;;;14.03;13.23;;;23.70;68.60;;;;;;2617440;54;20134;-84
2023/05/08 15:46:06;;;;;;;14.83;14.03;;;23.40;71.20;;;;;;2613627;54;20528;-82
2023/05/08 15:51:55;;;;;;;13.90;12.93;;;22.70;70.70;;;;;;2615039;54;20423;-81
2023/05/08 15:57:43;;;;;;;13.47;12.67;;;22.30;74.20;;;;;;2614885;54;20442;-82
2023/05/08 16:00:59;;;;;;;13.80;13.00;;;22.70;75.70;;;;;;2614615;54;20957;-83
2023/05/08 16:03:28;;;;;;;13.30;12.40;;;22.80;78.60;;;;;;2615649;47;20258;-85
2023/05/08 16:09:16;;;;;;;12.37;11.70;;;22.20;73.00;;;;;;2615656;54;20771;-79
2023/05/08 16:15:05;;;;;;;12.13;11.53;;;22.90;69.30;;;;;;2615086;39;20523;-80
2023/05/08 16:18:08;;;;;;;13.53;12.93;;;22.60;68.20;;;;;;2613323;54;20439;-82
2023/05/08 16:20:34;;;;;;;14.07;13.37;;;22.10;67.60;;;;;;2614814;39;20805;-81
2023/05/08 16:26:22;;;;;;;12.77;12.07;;;22.60;72.90;;;;;;2615315;54;20150;-82
2023/05/08 16:32:11;;;;;;;15.17;14.13;;;21.50;78.10;;;;;;2615886;54;20399;-81
2023/05/08 16:38:00;;;;;;;14.10;13.30;;;21.60;82.70;;;;;;2616684;39;20768;-81
2023/05/08 16:43:47;;;;;;;13.43;12.63;;;21.70;93.30;;;;;;2616583;54;20424;-81
2023/05/08 16:49:35;;;;;;;13.97;13.27;;;21.10;98.10;;;;;;2620182;54;20207;-81
2023/05/08 16:55:24;;;;;;;13.20;12.60;;;21.30;98.60;;;;;;2622641;54;20136;-81
2023/05/08 17:05:29;;;;;;;14.67;13.77;;;20.70;99.90;;;;;;2629153;54;20428;-81
2023/05/08 17:11:16;;;;;;;14.87;13.97;;;20.50;99.90;;;;;;2626089;54;20426;-79
2023/05/08 17:17:05;;;;;;;15.13;14.20;;;20.10;99.90;;;;;;2621979;54;20130;-79
2023/05/08 17:22:53;;;;;;;15.43;14.40;;;20.10;99.90;;;;;;2618799;54;20427;-81
2023/05/08 17:28:41;;;;;;;14.97;14.07;;;20.00;99.90;;;;;;2617088;54;20170;-80
2023/05/08 17:34:29;;;;;;;14.87;13.90;;;19.80;99.90;;;;;;2617119;54;20158;-80
2023/05/08 17:40:16;;;;;;;14.10;13.20;;;19.80;99.90;;;;;;2616101;54;20137;-80
2023/05/08 17:46:05;;;;;;;14.90;13.90;;;19.80;99.90;;;;;;2617534;54;20395;-79
2023/05/08 17:51:53;;;;;;;14.47;13.50;;;19.70;99.90;;;;;;2613960;54;21142;-80
2023/05/08 17:57:40;;;;;;;16.03;14.83;;;19.80;99.90;;;;;;2615059;54;20154;-79
2023/05/08 18:00:59;;;;;;;15.83;14.33;;;19.70;99.90;;;;;;2614994;39;20984;-80
2023/05/08 18:03:25;;;;;;;15.00;13.90;;;19.60;99.90;;;;;;2613515;54;20150;-80
2023/05/08 18:09:13;;;;;;;14.20;13.13;;;19.20;99.90;;;;;;2614924;54;20122;-80
2023/05/08 18:15:05;;;;;;;15.00;13.90;;;19.10;99.90;;;;;;2614363;54;20130;-79
2023/05/08 18:20:53;;;;;;;17.37;15.87;;;19.10;99.90;;;;;;2613730;54;21200;-80
2023/05/08 18:26:40;;;;;;;15.00;13.80;;;19.00;99.90;;;;;;2614589;54;20169;-79
2023/05/08 18:32:28;;;;;;;14.90;13.80;;;18.90;99.90;;;;;;2611865;54;20150;-79
2023/05/08 18:38:16;;;;;;;14.93;13.80;;;18.70;99.90;;;;;;2614683;54;20170;-80
2023/05/08 18:44:04;;;;;;;15.03;13.83;;;18.60;99.90;;;;;;2612790;54;20415;-79
2023/05/08 18:49:52;;;;;;;15.47;14.07;;;18.50;99.90;;;;;;2614347;54;20699;-80
2023/05/08 18:55:41;;;;;;;16.90;15.57;;;18.40;99.90;;;;;;2615512;54;20134;-80
2023/05/08 19:05:28;;;;;;;16.30;15.00;;;18.40;99.90;;;;;;2614558;54;20399;-79
2023/05/08 19:11:16;;;;;;;15.20;14.07;;;18.30;99.90;;;;;;2614576;54;20455;-80
2023/05/08 19:17:05;;;;;;;15.77;14.27;;;18.20;99.90;;;;;;2613204;54;20375;-79
2023/05/08 19:22:53;;;;;;;13.13;12.03;;;18.10;99.90;;;;;;2613878;54;20395;-80
2023/05/08 19:28:40;;;;;;;14.77;13.37;;;17.90;99.90;;;;;;2610953;54;20415;-79
2023/05/08 19:34:30;;;;;;;12.30;11.43;;;18.00;99.90;;;;;;2613685;54;20133;-81
2023/05/08 19:40:18;;;;;;;12.33;11.13;;;17.80;99.90;;;;;;2611331;54;20388;-79
2023/05/08 19:46:06;;;;;;;11.97;10.90;;;17.70;99.90;;;;;;2612465;54;20227;-79
2023/05/08 19:51:54;;;;;;;11.97;10.97;;;17.60;99.90;;;;;;2614001;39;20531;-80
2023/05/08 19:57:42;;;;;;;11.40;10.70;;;17.40;99.90;;;;;;2609761;54;20403;-79
2023/05/08 20:00:59;;;;;;;11.03;10.27;;;17.40;99.90;;;;;;2609810;54;21047;-80
2023/05/08 20:03:25;;;;;;;11.80;10.90;;;17.30;99.90;;;;;;2611153;54;20431;-79
2023/05/08 20:09:13;;;;;;;12.80;11.80;;;17.20;99.90;;;;;;2611505;39;20521;-80
2023/05/08 20:15:00;;;;;;;11.10;10.30;;;17.10;99.90;;;;;;2612743;54;20709;-80
2023/05/08 20:20:48;;;;;;;11.90;11.00;;;17.00;99.90;;;;;;2614284;54;20263;-79
2023/05/08 20:26:36;;;;;;;11.27;10.40;;;16.90;99.90;;;;;;2614991;39;20543;-80
2023/05/08 20:32:24;;;;;;;11.50;10.60;;;16.70;99.90;;;;;;2613664;54;20806;-79
2023/05/08 20:38:13;;;;;;;12.23;11.23;;;16.70;99.90;;;;;;2614346;54;20133;-80
2023/05/08 20:44:01;;;;;;;12.27;11.17;;;16.50;99.90;;;;;;2615214;54;20422;-80
2023/05/08 20:49:49;;;;;;;11.63;10.83;;;16.40;99.90;;;;;;2614645;54;20146;-80
2023/05/08 20:55:37;;;;;;;11.80;10.80;;;16.40;99.90;;;;;;2615141;39;20626;-79
2023/05/08 21:05:28;;;;;;;11.53;10.63;;;16.20;99.90;;;;;;2614862;54;20410;-79
2023/05/08 21:11:15;;;;;;;11.70;10.70;;;16.30;99.90;;;;;;2614841;54;20411;-79
2023/05/08 21:17:03;;;;;;;11.77;10.87;;;16.30;99.90;;;;;;2615257;54;20143;-80
2023/05/08 21:22:52;;;;;;;10.73;9.93;;;16.30;99.90;;;;;;2613930;54;20394;-78
2023/05/08 21:28:40;;;;;;;13.13;11.90;;;16.40;99.90;;;;;;2614992;54;20532;-79
2023/05/08 21:34:27;;;;;;;11.47;10.37;;;16.30;99.90;;;;;;2613673;39;20531;-80
2023/05/08 21:40:15;;;;;;;12.70;11.33;;;16.10;99.90;;;;;;2614477;54;20146;-80
2023/05/08 21:46:05;;;;;;;10.67;9.80;;;16.00;99.90;;;;;;2614451;54;20158;-80
2023/05/08 21:51:53;;;;;;;12.03;10.90;;;15.70;99.90;;;;;;2614686;54;20435;-81
2023/05/08 21:57:42;;;;;;;11.80;10.80;;;15.60;99.90;;;;;;2615441;54;21483;-79
2023/05/08 22:01:00;;;;;;;13.60;12.20;;;15.40;99.90;;;;;;2615304;54;20435;-79
2023/05/08 22:03:26;;;;;;;14.50;13.10;;;15.40;99.90;;;;;;2615416;54;20424;-80
2023/05/08 22:09:15;;;;;;;13.50;12.30;;;15.30;99.90;;;;;;2615169;54;20427;-80
2023/05/08 22:12:19;;;;;;;11.70;10.53;;;15.30;99.90;;;;;;2614800;54;20474;-80
2023/05/08 22:14:44;;;;;;;13.30;12.00;;;15.30;99.90;;;;;;2614838;54;20431;-79
2023/05/08 22:20:32;;;;;;;15.07;13.77;;;15.40;99.90;;;;;;2615301;54;20131;-79
2023/05/08 22:26:21;;;;;;;12.90;11.70;;;15.50;99.90;;;;;;2614872;54;20403;-79
2023/05/08 22:32:09;;;;;;;14.27;12.87;;;15.60;99.90;;;;;;2614067;54;20391;-78
2023/05/08 22:37:56;;;;;;;15.90;12.97;;;15.80;99.90;;;;;;2614920;54;20678;-79
2023/05/08 22:43:44;;;;;;;12.43;11.27;;;16.00;99.90;;;;;;2615580;39;20752;-78
2023/05/08 22:49:33;;;;;;;13.27;11.97;;;16.10;99.90;;;;;;2614938;54;20126;-79
2023/05/08 22:55:21;;;;;;;13.73;12.53;;;16.10;99.90;;;;;;2615599;39;20799;-79
2023/05/08 23:07:53;;;;;;;14.60;13.20;;;16.10;99.90;;;;;;2615386;54;20388;-79
2023/05/08 23:13:41;;;;;;;15.33;13.93;;;16.10;99.90;;;;;;2615737;54;20134;-80
2023/05/08 23:19:29;;;;;;;13.77;12.67;;;16.10;99.90;;;;;;2614891;39;20522;-78
2023/05/08 23:25:18;;;;;;;14.33;13.07;;;16.30;99.90;;;;;;2614796;54;20158;-78
2023/05/08 23:31:06;;;;;;;13.93;12.63;;;16.20;99.90;;;;;;2614143;54;20422;-78
2023/05/08 23:36:53;;;;;;;13.57;12.43;;;16.20;99.90;;;;;;2613541;54;20134;-79
2023/05/08 23:42:42;;;;;;;14.80;13.43;;;16.20;99.90;;;;;;2614241;54;20170;-80
2023/05/08 23:48:30;;;;;;;14.90;13.70;;;16.30;99.90;;;;;;2614987;54;20511;-78
2023/05/08 23:54:17;;;;;;;16.23;14.73;;;16.20;99.90;;;;;;2613053;54;20663;-80
